sensor_id;sensor_type;location;lat;lon;timestamp;P1;durP1;ratioP1;P2;durP2;ratioP2
40322;SDS011;26030;51.164;17.100;2023-05-10T00:04:58;12.20;;;9.60;;
40322;SDS011;26030;51.164;17.100;2023-05-10T00:10:02;11.40;;;9.00;;
40322;SDS011;26030;51.164;17.100;2023-05-10T00:15:09;11.50;;;9.80;;
40322;SDS011;26030;51.164;17.100;2023-05-10T00:20:13;14.80;;;9.50;;
40322;SDS011;26030;51.164;17.100;2023-05-10T00:25:18;13.00;;;9.50;;
40322;SDS011;26030;51.164;17.100;2023-05-10T00:30:23;9.70;;;8.50;;
40322;SDS011;26030;51.164;17.100;2023-05-10T00:35:27;15.20;;;9.00;;
40322;SDS011;26030;51.164;17.100;2023-05-10T00:40:31;11.10;;;8.50;;
40322;SDS011;26030;51.164;17.100;2023-05-10T00:45:40;11.00;;;9.00;;
40322;SDS011;26030;51.164;17.100;2023-05-10T00:50:45;11.00;;;9.00;;
40322;SDS011;26030;51.164;17.100;2023-05-10T00:55:50;10.00;;;8.30;;
40322;SDS011;26030;51.164;17.100;2023-05-10T01:00:55;10.60;;;7.70;;
40322;SDS011;26030;51.164;17.100;2023-05-10T01:06:02;10.80;;;8.70;;
40322;SDS011;26030;51.164;17.100;2023-05-10T01:11:07;13.50;;;9.50;;
40322;SDS011;26030;51.164;17.100;2023-05-10T01:16:11;11.10;;;8.10;;
40322;SDS011;26030;51.164;17.100;2023-05-10T01:37:59;11.40;;;7.50;;
40322;SDS011;26030;51.164;17.100;2023-05-10T01:43:13;9.00;;;7.60;;
40322;SDS011;26030;51.164;17.100;2023-05-10T01:48:21;8.10;;;7.00;;
40322;SDS011;26030;51.164;17.100;2023-05-10T01:53:27;8.80;;;7.30;;
40322;SDS011;26030;51.164;17.100;2023-05-10T01:58:32;7.60;;;6.80;;
40322;SDS011;26030;51.164;17.100;2023-05-10T02:03:40;9.10;;;7.10;;
40322;SDS011;26030;51.164;17.100;2023-05-10T02:08:47;7.70;;;6.40;;
40322;SDS011;26030;51.164;17.100;2023-05-10T02:13:53;7.40;;;6.70;;
40322;SDS011;26030;51.164;17.100;2023-05-10T02:19:03;8.00;;;6.90;;
40322;SDS011;26030;51.164;17.100;2023-05-10T02:24:08;8.30;;;6.80;;
40322;SDS011;26030;51.164;17.100;2023-05-10T02:29:14;7.60;;;6.80;;
40322;SDS011;26030;51.164;17.100;2023-05-10T02:34:21;7.20;;;6.40;;
40322;SDS011;26030;51.164;17.100;2023-05-10T02:39:27;6.90;;;6.10;;
40322;SDS011;26030;51.164;17.100;2023-05-10T02:44:36;8.40;;;6.50;;
40322;SDS011;26030;51.164;17.100;2023-05-10T02:49:41;7.10;;;6.40;;
40322;SDS011;26030;51.164;17.100;2023-05-10T02:54:49;7.60;;;5.70;;
40322;SDS011;26030;51.164;17.100;2023-05-10T02:59:54;7.10;;;6.40;;
40322;SDS011;26030;51.164;17.100;2023-05-10T03:04:59;6.40;;;5.80;;
40322;SDS011;26030;51.164;17.100;2023-05-10T03:10:05;7.70;;;6.40;;
40322;SDS011;26030;51.164;17.100;2023-05-10T03:20:47;6.30;;;5.60;;
40322;SDS011;26030;51.164;17.100;2023-05-10T03:25:52;7.80;;;6.20;;
40322;SDS011;26030;51.164;17.100;2023-05-10T03:30:57;7.30;;;5.20;;
40322;SDS011;26030;51.164;17.100;2023-05-10T03:36:03;6.70;;;6.00;;
40322;SDS011;26030;51.164;17.100;2023-05-10T03:41:07;9.00;;;5.80;;
40322;SDS011;26030;51.164;17.100;2023-05-10T03:46:12;6.50;;;5.10;;
40322;SDS011;26030;51.164;17.100;2023-05-10T03:51:16;6.20;;;5.60;;
40322;SDS011;26030;51.164;17.100;2023-05-10T03:56:20;6.50;;;5.80;;
40322;SDS011;26030;51.164;17.100;2023-05-10T04:01:25;7.70;;;6.40;;
40322;SDS011;26030;51.164;17.100;2023-05-10T04:06:29;6.60;;;5.40;;
40322;SDS011;26030;51.164;17.100;2023-05-10T04:11:34;6.20;;;5.30;;
40322;SDS011;26030;51.164;17.100;2023-05-10T04:16:38;8.70;;;6.00;;
40322;SDS011;26030;51.164;17.100;2023-05-10T04:21:43;6.00;;;5.50;;
40322;SDS011;26030;51.164;17.100;2023-05-10T04:26:47;6.20;;;5.40;;
40322;SDS011;26030;51.164;17.100;2023-05-10T04:31:51;6.90;;;4.80;;
40322;SDS011;26030;51.164;17.100;2023-05-10T04:36:55;5.60;;;5.10;;
40322;SDS011;26030;51.164;17.100;2023-05-10T04:42:01;5.10;;;4.60;;
40322;SDS011;26030;51.164;17.100;2023-05-10T04:47:06;5.30;;;4.80;;
40322;SDS011;26030;51.164;17.100;2023-05-10T04:52:13;5.50;;;5.00;;
40322;SDS011;26030;51.164;17.100;2023-05-10T04:57:18;4.90;;;4.40;;
40322;SDS011;26030;51.164;17.100;2023-05-10T05:02:23;4.40;;;4.00;;
40322;SDS011;26030;51.164;17.100;2023-05-10T05:07:27;5.00;;;4.50;;
40322;SDS011;26030;51.164;17.100;2023-05-10T05:12:31;5.10;;;4.50;;
40322;SDS011;26030;51.164;17.100;2023-05-10T05:17:36;5.30;;;4.80;;
40322;SDS011;26030;51.164;17.100;2023-05-10T05:22:40;5.00;;;4.50;;
40322;SDS011;26030;51.164;17.100;2023-05-10T05:27:45;5.40;;;4.90;;
40322;SDS011;26030;51.164;17.100;2023-05-10T05:32:49;4.10;;;3.70;;
40322;SDS011;26030;51.164;17.100;2023-05-10T05:37:53;5.20;;;4.30;;
40322;SDS011;26030;51.164;17.100;2023-05-10T05:42:57;5.40;;;4.30;;
40322;SDS011;26030;51.164;17.100;2023-05-10T05:48:02;3.90;;;3.60;;
40322;SDS011;26030;51.164;17.100;2023-05-10T05:53:06;7.20;;;4.10;;
40322;SDS011;26030;51.164;17.100;2023-05-10T05:58:10;5.50;;;4.10;;
40322;SDS011;26030;51.164;17.100;2023-05-10T06:03:14;5.30;;;4.30;;
40322;SDS011;26030;51.164;17.100;2023-05-10T06:08:19;4.50;;;4.10;;
40322;SDS011;26030;51.164;17.100;2023-05-10T06:13:25;7.80;;;4.30;;
40322;SDS011;26030;51.164;17.100;2023-05-10T06:18:36;6.40;;;4.10;;
40322;SDS011;26030;51.164;17.100;2023-05-10T06:23:40;7.80;;;3.70;;
40322;SDS011;26030;51.164;17.100;2023-05-10T06:28:44;6.60;;;4.00;;
40322;SDS011;26030;51.164;17.100;2023-05-10T06:34:12;6.40;;;4.60;;
40322;SDS011;26030;51.164;17.100;2023-05-10T06:39:17;11.60;;;4.50;;
40322;SDS011;26030;51.164;17.100;2023-05-10T06:44:22;6.60;;;3.70;;
40322;SDS011;26030;51.164;17.100;2023-05-10T06:49:27;68.50;;;33.70;;
40322;SDS011;26030;51.164;17.100;2023-05-10T06:54:31;76.50;;;33.80;;
40322;SDS011;26030;51.164;17.100;2023-05-10T06:59:35;62.90;;;29.60;;
40322;SDS011;26030;51.164;17.100;2023-05-10T07:04:40;54.00;;;26.00;;
40322;SDS011;26030;51.164;17.100;2023-05-10T07:09:44;44.90;;;22.20;;
40322;SDS011;26030;51.164;17.100;2023-05-10T07:14:49;35.00;;;18.40;;
40322;SDS011;26030;51.164;17.100;2023-05-10T07:19:53;39.40;;;17.80;;
40322;SDS011;26030;51.164;17.100;2023-05-10T07:24:57;39.90;;;16.50;;
40322;SDS011;26030;51.164;17.100;2023-05-10T07:30:02;33.30;;;16.20;;
40322;SDS011;26030;51.164;17.100;2023-05-10T07:35:07;26.70;;;15.10;;
40322;SDS011;26030;51.164;17.100;2023-05-10T07:40:11;34.40;;;16.30;;
40322;SDS011;26030;51.164;17.100;2023-05-10T07:45:15;28.20;;;15.20;;
40322;SDS011;26030;51.164;17.100;2023-05-10T07:50:19;32.20;;;15.40;;
40322;SDS011;26030;51.164;17.100;2023-05-10T07:55:25;30.90;;;14.40;;
40322;SDS011;26030;51.164;17.100;2023-05-10T08:00:30;34.80;;;15.20;;
40322;SDS011;26030;51.164;17.100;2023-05-10T08:05:35;25.90;;;14.30;;
40322;SDS011;26030;51.164;17.100;2023-05-10T08:10:39;35.60;;;16.00;;
40322;SDS011;26030;51.164;17.100;2023-05-10T08:15:43;29.80;;;13.90;;
40322;SDS011;26030;51.164;17.100;2023-05-10T08:20:47;31.70;;;14.50;;
40322;SDS011;26030;51.164;17.100;2023-05-10T08:25:51;28.50;;;14.30;;
40322;SDS011;26030;51.164;17.100;2023-05-10T08:30:56;31.10;;;14.90;;
40322;SDS011;26030;51.164;17.100;2023-05-10T08:36:00;27.10;;;13.00;;
40322;SDS011;26030;51.164;17.100;2023-05-10T08:41:05;27.50;;;14.00;;
40322;SDS011;26030;51.164;17.100;2023-05-10T08:46:10;28.10;;;12.70;;
40322;SDS011;26030;51.164;17.100;2023-05-10T08:51:19;24.80;;;12.10;;
40322;SDS011;26030;51.164;17.100;2023-05-10T08:56:26;32.60;;;14.20;;
40322;SDS011;26030;51.164;17.100;2023-05-10T09:01:31;26.90;;;13.00;;
40322;SDS011;26030;51.164;17.100;2023-05-10T09:06:36;27.10;;;12.70;;
40322;SDS011;26030;51.164;17.100;2023-05-10T09:11:41;24.00;;;12.60;;
40322;SDS011;26030;51.164;17.100;2023-05-10T09:16:45;27.10;;;12.60;;
40322;SDS011;26030;51.164;17.100;2023-05-10T09:21:50;26.10;;;11.80;;
40322;SDS011;26030;51.164;17.100;2023-05-10T09:26:56;22.20;;;11.80;;
40322;SDS011;26030;51.164;17.100;2023-05-10T09:32:01;24.30;;;11.90;;
40322;SDS011;26030;51.164;17.100;2023-05-10T09:37:06;20.60;;;11.40;;
40322;SDS011;26030;51.164;17.100;2023-05-10T09:42:10;17.40;;;10.70;;
40322;SDS011;26030;51.164;17.100;2023-05-10T09:47:17;18.30;;;9.90;;
40322;SDS011;26030;51.164;17.100;2023-05-10T09:52:25;17.00;;;10.10;;
40322;SDS011;26030;51.164;17.100;2023-05-10T09:57:29;16.60;;;9.20;;
40322;SDS011;26030;51.164;17.100;2023-05-10T10:02:37;16.40;;;10.20;;
40322;SDS011;26030;51.164;17.100;2023-05-10T10:07:42;16.80;;;9.00;;
40322;SDS011;26030;51.164;17.100;2023-05-10T10:12:46;17.40;;;9.40;;
40322;SDS011;26030;51.164;17.100;2023-05-10T10:17:51;13.90;;;8.90;;
40322;SDS011;26030;51.164;17.100;2023-05-10T10:22:56;15.00;;;8.50;;
40322;SDS011;26030;51.164;17.100;2023-05-10T10:54:54;11.90;;;8.30;;
40322;SDS011;26030;51.164;17.100;2023-05-10T11:00:32;19.30;;;9.70;;
40322;SDS011;26030;51.164;17.100;2023-05-10T11:05:48;13.10;;;7.50;;
40322;SDS011;26030;51.164;17.100;2023-05-10T11:16:23;12.30;;;7.30;;
40322;SDS011;26030;51.164;17.100;2023-05-10T11:21:28;13.50;;;7.00;;
40322;SDS011;26030;51.164;17.100;2023-05-10T11:26:35;15.30;;;8.00;;
40322;SDS011;26030;51.164;17.100;2023-05-10T11:31:43;10.70;;;7.30;;
40322;SDS011;26030;51.164;17.100;2023-05-10T11:36:51;12.00;;;7.00;;
40322;SDS011;26030;51.164;17.100;2023-05-10T11:41:58;10.30;;;6.80;;
40322;SDS011;26030;51.164;17.100;2023-05-10T11:47:02;11.20;;;7.60;;
40322;SDS011;26030;51.164;17.100;2023-05-10T11:52:07;14.10;;;7.00;;
40322;SDS011;26030;51.164;17.100;2023-05-10T11:57:12;11.30;;;6.20;;
40322;SDS011;26030;51.164;17.100;2023-05-10T12:02:16;11.10;;;6.70;;
40322;SDS011;26030;51.164;17.100;2023-05-10T12:07:21;10.40;;;6.20;;
40322;SDS011;26030;51.164;17.100;2023-05-10T12:12:25;12.10;;;7.10;;
40322;SDS011;26030;51.164;17.100;2023-05-10T12:17:29;13.10;;;6.40;;
40322;SDS011;26030;51.164;17.100;2023-05-10T12:22:33;9.60;;;5.70;;
40322;SDS011;26030;51.164;17.100;2023-05-10T12:27:38;10.20;;;6.20;;
40322;SDS011;26030;51.164;17.100;2023-05-10T12:32:43;9.30;;;5.40;;
40322;SDS011;26030;51.164;17.100;2023-05-10T12:37:47;13.60;;;6.30;;
40322;SDS011;26030;51.164;17.100;2023-05-10T12:42:52;8.90;;;5.80;;
40322;SDS011;26030;51.164;17.100;2023-05-10T12:47:56;8.70;;;4.70;;
40322;SDS011;26030;51.164;17.100;2023-05-10T12:53:00;8.90;;;5.70;;
40322;SDS011;26030;51.164;17.100;2023-05-10T12:58:04;12.10;;;5.00;;
40322;SDS011;26030;51.164;17.100;2023-05-10T13:03:09;8.00;;;5.30;;
40322;SDS011;26030;51.164;17.100;2023-05-10T13:08:13;6.40;;;5.00;;
40322;SDS011;26030;51.164;17.100;2023-05-10T13:13:18;9.30;;;5.30;;
40322;SDS011;26030;51.164;17.100;2023-05-10T13:18:22;6.60;;;4.80;;
40322;SDS011;26030;51.164;17.100;2023-05-10T13:23:26;6.30;;;4.50;;
40322;SDS011;26030;51.164;17.100;2023-05-10T13:28:30;6.60;;;4.60;;
40322;SDS011;26030;51.164;17.100;2023-05-10T13:33:34;5.70;;;4.20;;
40322;SDS011;26030;51.164;17.100;2023-05-10T13:38:38;7.70;;;5.20;;
40322;SDS011;26030;51.164;17.100;2023-05-10T13:43:42;6.80;;;4.90;;
40322;SDS011;26030;51.164;17.100;2023-05-10T13:48:46;7.10;;;4.70;;
40322;SDS011;26030;51.164;17.100;2023-05-10T13:53:50;7.90;;;4.80;;
40322;SDS011;26030;51.164;17.100;2023-05-10T13:58:59;6.60;;;4.50;;
40322;SDS011;26030;51.164;17.100;2023-05-10T14:04:03;8.80;;;4.70;;
40322;SDS011;26030;51.164;17.100;2023-05-10T14:09:07;6.90;;;4.80;;
40322;SDS011;26030;51.164;17.100;2023-05-10T14:14:12;5.60;;;4.00;;
40322;SDS011;26030;51.164;17.100;2023-05-10T14:19:17;4.80;;;3.90;;
40322;SDS011;26030;51.164;17.100;2023-05-10T14:24:21;4.30;;;3.90;;
40322;SDS011;26030;51.164;17.100;2023-05-10T14:29:25;6.50;;;3.90;;
40322;SDS011;26030;51.164;17.100;2023-05-10T14:34:30;6.40;;;4.00;;
40322;SDS011;26030;51.164;17.100;2023-05-10T14:39:34;6.40;;;4.10;;
40322;SDS011;26030;51.164;17.100;2023-05-10T14:44:38;4.50;;;3.80;;
40322;SDS011;26030;51.164;17.100;2023-05-10T14:49:43;4.50;;;3.30;;
40322;SDS011;26030;51.164;17.100;2023-05-10T14:54:47;8.90;;;3.80;;
40322;SDS011;26030;51.164;17.100;2023-05-10T14:59:51;3.50;;;2.90;;
40322;SDS011;26030;51.164;17.100;2023-05-10T15:04:55;5.30;;;3.60;;
40322;SDS011;26030;51.164;17.100;2023-05-10T15:10:02;5.10;;;3.50;;
40322;SDS011;26030;51.164;17.100;2023-05-10T15:15:06;6.60;;;2.80;;
40322;SDS011;26030;51.164;17.100;2023-05-10T15:20:11;11.80;;;3.00;;
40322;SDS011;26030;51.164;17.100;2023-05-10T15:25:15;5.50;;;2.90;;
40322;SDS011;26030;51.164;17.100;2023-05-10T15:30:20;5.70;;;2.90;;
40322;SDS011;26030;51.164;17.100;2023-05-10T15:35:26;4.30;;;2.60;;
40322;SDS011;26030;51.164;17.100;2023-05-10T15:40:32;8.00;;;2.70;;
40322;SDS011;26030;51.164;17.100;2023-05-10T15:45:38;7.50;;;2.40;;
40322;SDS011;26030;51.164;17.100;2023-05-10T15:50:42;8.70;;;2.50;;
40322;SDS011;26030;51.164;17.100;2023-05-10T15:55:45;6.30;;;2.40;;
40322;SDS011;26030;51.164;17.100;2023-05-10T16:00:50;7.70;;;2.60;;
40322;SDS011;26030;51.164;17.100;2023-05-10T16:05:54;8.90;;;2.50;;
40322;SDS011;26030;51.164;17.100;2023-05-10T16:10:59;4.60;;;2.30;;
40322;SDS011;26030;51.164;17.100;2023-05-10T16:16:03;10.70;;;2.10;;
40322;SDS011;26030;51.164;17.100;2023-05-10T16:21:07;2.70;;;2.10;;
40322;SDS011;26030;51.164;17.100;2023-05-10T16:26:12;4.20;;;2.40;;
40322;SDS011;26030;51.164;17.100;2023-05-10T16:31:16;7.00;;;2.60;;
40322;SDS011;26030;51.164;17.100;2023-05-10T16:36:24;9.80;;;2.10;;
40322;SDS011;26030;51.164;17.100;2023-05-10T16:47:26;4.70;;;2.70;;
40322;SDS011;26030;51.164;17.100;2023-05-10T16:52:31;15.00;;;2.60;;
40322;SDS011;26030;51.164;17.100;2023-05-10T16:57:35;14.10;;;2.20;;
40322;SDS011;26030;51.164;17.100;2023-05-10T17:02:40;11.50;;;2.20;;
40322;SDS011;26030;51.164;17.100;2023-05-10T17:07:44;13.90;;;3.00;;
40322;SDS011;26030;51.164;17.100;2023-05-10T17:12:50;7.70;;;2.40;;
40322;SDS011;26030;51.164;17.100;2023-05-10T17:17:54;8.40;;;2.00;;
40322;SDS011;26030;51.164;17.100;2023-05-10T17:22:58;5.00;;;2.10;;
40322;SDS011;26030;51.164;17.100;2023-05-10T17:28:03;8.00;;;2.50;;
40322;SDS011;26030;51.164;17.100;2023-05-10T17:33:07;5.50;;;2.20;;
40322;SDS011;26030;51.164;17.100;2023-05-10T17:38:11;5.60;;;2.50;;
40322;SDS011;26030;51.164;17.100;2023-05-10T17:43:15;6.70;;;3.40;;
40322;SDS011;26030;51.164;17.100;2023-05-10T17:48:19;7.80;;;2.20;;
40322;SDS011;26030;51.164;17.100;2023-05-10T17:53:23;6.90;;;2.10;;
40322;SDS011;26030;51.164;17.100;2023-05-10T17:58:27;7.30;;;2.20;;
40322;SDS011;26030;51.164;17.100;2023-05-10T18:03:31;5.30;;;2.10;;
40322;SDS011;26030;51.164;17.100;2023-05-10T18:08:35;6.90;;;1.90;;
40322;SDS011;26030;51.164;17.100;2023-05-10T18:13:40;4.80;;;2.20;;
40322;SDS011;26030;51.164;17.100;2023-05-10T18:18:45;17.00;;;2.60;;
40322;SDS011;26030;51.164;17.100;2023-05-10T18:23:49;19.00;;;2.40;;
40322;SDS011;26030;51.164;17.100;2023-05-10T18:28:53;14.90;;;2.80;;
40322;SDS011;26030;51.164;17.100;2023-05-10T18:33:57;10.50;;;2.60;;
40322;SDS011;26030;51.164;17.100;2023-05-10T18:39:01;6.90;;;2.50;;
40322;SDS011;26030;51.164;17.100;2023-05-10T18:44:06;13.60;;;3.20;;
40322;SDS011;26030;51.164;17.100;2023-05-10T18:49:12;8.60;;;2.30;;
40322;SDS011;26030;51.164;17.100;2023-05-10T18:54:16;7.80;;;2.50;;
40322;SDS011;26030;51.164;17.100;2023-05-10T18:59:21;13.10;;;2.70;;
40322;SDS011;26030;51.164;17.100;2023-05-10T19:04:27;7.60;;;2.40;;
40322;SDS011;26030;51.164;17.100;2023-05-10T19:09:31;11.30;;;2.80;;
40322;SDS011;26030;51.164;17.100;2023-05-10T19:14:36;6.40;;;2.60;;
40322;SDS011;26030;51.164;17.100;2023-05-10T19:19:42;6.90;;;2.90;;
40322;SDS011;26030;51.164;17.100;2023-05-10T19:24:48;4.60;;;2.50;;
40322;SDS011;26030;51.164;17.100;2023-05-10T19:29:53;13.20;;;3.60;;
40322;SDS011;26030;51.164;17.100;2023-05-10T19:34:58;10.10;;;2.40;;
40322;SDS011;26030;51.164;17.100;2023-05-10T19:40:08;17.30;;;3.60;;
40322;SDS011;26030;51.164;17.100;2023-05-10T19:45:15;28.60;;;11.30;;
40322;SDS011;26030;51.164;17.100;2023-05-10T19:50:20;83.80;;;40.80;;
40322;SDS011;26030;51.164;17.100;2023-05-10T19:55:29;115.50;;;55.70;;
40322;SDS011;26030;51.164;17.100;2023-05-10T20:00:34;184.70;;;92.20;;
40322;SDS011;26030;51.164;17.100;2023-05-10T20:05:40;122.00;;;56.20;;
40322;SDS011;26030;51.164;17.100;2023-05-10T20:10:44;105.00;;;52.30;;
40322;SDS011;26030;51.164;17.100;2023-05-10T20:15:49;101.90;;;45.40;;
40322;SDS011;26030;51.164;17.100;2023-05-10T20:20:53;86.20;;;42.70;;
40322;SDS011;26030;51.164;17.100;2023-05-10T20:25:58;83.20;;;39.70;;
40322;SDS011;26030;51.164;17.100;2023-05-10T20:31:03;75.90;;;41.60;;
40322;SDS011;26030;51.164;17.100;2023-05-10T20:36:10;79.50;;;38.40;;
40322;SDS011;26030;51.164;17.100;2023-05-10T20:41:16;85.00;;;38.50;;
40322;SDS011;26030;51.164;17.100;2023-05-10T20:46:20;74.60;;;36.00;;
40322;SDS011;26030;51.164;17.100;2023-05-10T20:51:24;88.60;;;39.00;;
40322;SDS011;26030;51.164;17.100;2023-05-10T20:56:28;70.80;;;34.30;;
40322;SDS011;26030;51.164;17.100;2023-05-10T21:01:32;69.80;;;34.80;;
40322;SDS011;26030;51.164;17.100;2023-05-10T21:06:36;70.50;;;33.80;;
40322;SDS011;26030;51.164;17.100;2023-05-10T21:11:40;69.30;;;34.20;;
40322;SDS011;26030;51.164;17.100;2023-05-10T21:16:44;59.40;;;32.60;;
40322;SDS011;26030;51.164;17.100;2023-05-10T21:21:49;64.50;;;32.30;;
40322;SDS011;26030;51.164;17.100;2023-05-10T21:26:53;66.40;;;33.90;;
40322;SDS011;26030;51.164;17.100;2023-05-10T21:31:58;60.60;;;31.40;;
40322;SDS011;26030;51.164;17.100;2023-05-10T21:37:01;55.80;;;32.30;;
40322;SDS011;26030;51.164;17.100;2023-05-10T21:42:06;57.80;;;30.10;;
40322;SDS011;26030;51.164;17.100;2023-05-10T21:47:09;59.90;;;30.50;;
40322;SDS011;26030;51.164;17.100;2023-05-10T21:52:13;54.00;;;29.50;;
40322;SDS011;26030;51.164;17.100;2023-05-10T21:57:18;53.20;;;28.90;;
40322;SDS011;26030;51.164;17.100;2023-05-10T22:02:24;55.00;;;28.40;;
40322;SDS011;26030;51.164;17.100;2023-05-10T22:07:32;56.60;;;29.70;;
40322;SDS011;26030;51.164;17.100;2023-05-10T22:12:36;48.40;;;28.70;;
40322;SDS011;26030;51.164;17.100;2023-05-10T22:17:40;49.50;;;27.10;;
40322;SDS011;26030;51.164;17.100;2023-05-10T22:22:44;48.40;;;25.30;;
40322;SDS011;26030;51.164;17.100;2023-05-10T22:27:48;44.30;;;25.70;;
40322;SDS011;26030;51.164;17.100;2023-05-10T22:32:52;47.00;;;24.50;;
40322;SDS011;26030;51.164;17.100;2023-05-10T22:37:56;40.50;;;24.30;;
40322;SDS011;26030;51.164;17.100;2023-05-10T22:43:01;42.90;;;24.00;;
40322;SDS011;26030;51.164;17.100;2023-05-10T22:48:07;41.70;;;24.50;;
40322;SDS011;26030;51.164;17.100;2023-05-10T22:53:11;38.80;;;23.50;;
40322;SDS011;26030;51.164;17.100;2023-05-10T22:58:16;41.10;;;23.10;;
40322;SDS011;26030;51.164;17.100;2023-05-10T23:03:20;35.40;;;22.30;;
40322;SDS011;26030;51.164;17.100;2023-05-10T23:08:25;37.90;;;22.00;;
40322;SDS011;26030;51.164;17.100;2023-05-10T23:13:29;32.20;;;21.50;;
40322;SDS011;26030;51.164;17.100;2023-05-10T23:18:33;36.00;;;20.80;;
40322;SDS011;26030;51.164;17.100;2023-05-10T23:23:37;36.40;;;21.10;;
40322;SDS011;26030;51.164;17.100;2023-05-10T23:28:41;31.30;;;19.50;;
40322;SDS011;26030;51.164;17.100;2023-05-10T23:33:45;34.30;;;19.70;;
40322;SDS011;26030;51.164;17.100;2023-05-10T23:38:49;32.00;;;19.60;;
40322;SDS011;26030;51.164;17.100;2023-05-10T23:43:54;28.90;;;19.40;;
40322;SDS011;26030;51.164;17.100;2023-05-10T23:48:57;36.30;;;19.20;;
40322;SDS011;26030;51.164;17.100;2023-05-10T23:54:02;31.00;;;19.00;;
40322;SDS011;26030;51.164;17.100;2023-05-10T23:59:06;30.30;;;18.10;;
